Time;durP1;ratioP1;P1;durP2;ratioP2;P2;SDS_P1;SDS_P2;PMS_P1;PMS_P2;Temp;Humidity;BMP_temperature;BMP_pressure;BME280_temperature;BME280_humidity;BME280_pressure;Samples;Min_cycle;Max_cycle;Signal;HPM_P1;HPM_P2
2023/07/12 00:00:47;;;;;;;6.15;2.40;;;19.30;99.90;;;;;;4999437;28;20037;-80
2023/07/12 00:03:14;;;;;;;7.47;2.70;;;19.30;99.90;;;;;;5015211;28;20029;-80
2023/07/12 00:05:41;;;;;;;7.50;2.63;;;19.30;99.90;;;;;;4976002;28;20087;-80
2023/07/12 00:08:19;;;;;;;8.38;2.90;;;19.20;99.90;;;;;;5018077;28;20044;-80
2023/07/12 00:10:46;;;;;;;9.02;3.00;;;19.20;99.90;;;;;;5013567;28;20033;-80
2023/07/12 00:13:11;;;;;;;7.45;2.65;;;19.20;99.90;;;;;;5035750;28;20856;-80
2023/07/12 00:15:38;;;;;;;7.32;2.80;;;19.20;99.90;;;;;;5001355;27;21543;-80
2023/07/12 00:18:10;;;;;;;7.65;2.70;;;19.20;99.90;;;;;;4996919;28;20116;-80
2023/07/12 00:20:37;;;;;;;7.88;2.80;;;19.20;99.90;;;;;;5022451;28;20611;-80
2023/07/12 00:23:03;;;;;;;8.65;2.90;;;19.20;99.90;;;;;;5002060;27;20037;-80
2023/07/12 00:25:31;;;;;;;7.40;2.97;;;19.70;99.90;;;;;;5028841;27;20033;-80
2023/07/12 00:27:58;;;;;;;8.45;3.13;;;19.20;99.90;;;;;;5026038;28;20490;-80
2023/07/12 00:30:27;;;;;;;10.05;3.50;;;19.10;99.90;;;;;;4982764;28;20106;-80
2023/07/12 00:32:55;;;;;;;8.20;3.08;;;19.10;99.90;;;;;;5029527;27;20102;-80
2023/07/12 00:35:24;;;;;;;6.97;2.63;;;19.10;99.90;;;;;;5041428;28;20462;-80
2023/07/12 00:37:52;;;;;;;8.43;2.63;;;19.10;99.90;;;;;;5020554;28;20045;-80
2023/07/12 00:40:41;;;;;;;8.57;2.90;;;19.10;99.90;;;;;;5013240;28;20041;-80
2023/07/12 00:43:18;;;;;;;7.60;2.70;;;19.10;99.90;;;;;;5023090;28;20033;-80
2023/07/12 00:45:46;;;;;;;8.90;3.13;;;19.10;99.90;;;;;;5021199;28;20161;-80
2023/07/12 00:48:12;;;;;;;8.00;2.72;;;19.00;99.90;;;;;;5020603;28;20041;-80
2023/07/12 00:50:39;;;;;;;8.95;2.85;;;19.00;99.90;;;;;;5025584;27;20033;-80
2023/07/12 00:53:09;;;;;;;9.75;3.03;;;19.00;99.90;;;;;;5026912;28;20241;-80
2023/07/12 00:55:55;;;;;;;9.23;2.75;;;18.90;99.90;;;;;;5030764;27;20033;-80
2023/07/12 00:58:23;;;;;;;8.25;3.05;;;18.90;99.90;;;;;;5001938;28;20375;-80
2023/07/12 01:00:50;;;;;;;7.93;2.78;;;18.80;99.90;;;;;;4992999;28;20033;-80
2023/07/12 01:03:18;;;;;;;7.43;2.70;;;18.80;99.90;;;;;;5026700;27;20036;-81
2023/07/12 01:05:45;;;;;;;9.98;2.83;;;18.80;99.90;;;;;;5082283;28;20048;-80
2023/07/12 01:08:12;;;;;;;8.65;2.72;;;18.80;99.90;;;;;;5013369;27;20061;-80
2023/07/12 01:10:38;;;;;;;8.70;2.80;;;18.80;99.90;;;;;;5025657;27;20037;-80
2023/07/12 01:13:06;;;;;;;9.07;2.80;;;18.70;99.90;;;;;;4994573;28;20041;-80
2023/07/12 01:15:32;;;;;;;7.65;2.80;;;18.70;99.90;;;;;;5020827;28;20044;-80
2023/07/12 01:17:59;;;;;;;8.82;2.67;;;18.70;99.90;;;;;;5009802;28;20105;-80
2023/07/12 01:20:25;;;;;;;7.40;2.67;;;18.70;99.90;;;;;;5027989;28;20045;-80
2023/07/12 01:22:52;;;;;;;7.97;2.75;;;18.70;99.90;;;;;;4994199;28;20029;-80
2023/07/12 01:25:36;;;;;;;7.45;2.65;;;18.70;99.90;;;;;;4983716;28;20121;-80
2023/07/12 01:28:02;;;;;;;8.40;2.72;;;18.70;99.90;;;;;;5033891;27;20494;-80
2023/07/12 01:30:28;;;;;;;7.55;2.83;;;18.70;99.90;;;;;;5000805;28;20044;-80
2023/07/12 01:32:54;;;;;;;8.07;2.88;;;18.60;99.90;;;;;;5006844;28;20425;-80
2023/07/12 01:35:20;;;;;;;7.60;2.90;;;18.60;99.90;;;;;;5005779;27;20033;-80
2023/07/12 01:37:45;;;;;;;8.52;2.80;;;18.60;99.90;;;;;;5004242;28;20108;-80
2023/07/12 01:40:12;;;;;;;9.10;2.70;;;18.60;99.90;;;;;;5040308;28;20029;-80
2023/07/12 01:42:37;;;;;;;9.65;3.05;;;18.50;99.90;;;;;;5023568;28;20088;-80
2023/07/12 01:45:03;;;;;;;8.57;3.03;;;18.50;99.90;;;;;;4999142;28;20072;-80
2023/07/12 01:47:30;;;;;;;9.23;3.10;;;18.50;99.90;;;;;;5013538;28;20624;-80
2023/07/12 01:49:56;;;;;;;6.47;2.75;;;18.50;99.90;;;;;;4997955;28;20081;-80
2023/07/12 01:52:22;;;;;;;9.65;2.80;;;18.50;99.90;;;;;;5023288;27;20521;-80
2023/07/12 01:54:49;;;;;;;9.85;3.20;;;18.50;99.90;;;;;;5021187;27;20517;-80
2023/07/12 01:57:15;;;;;;;7.63;2.80;;;18.40;99.90;;;;;;5001677;28;20059;-81
2023/07/12 01:59:41;;;;;;;8.52;3.10;;;18.40;99.90;;;;;;5025684;27;20046;-80
2023/07/12 02:02:08;;;;;;;8.57;3.05;;;18.40;99.90;;;;;;5011340;27;20535;-80
2023/07/12 02:04:33;;;;;;;8.65;3.10;;;18.40;99.90;;;;;;5022888;28;20098;-80
2023/07/12 02:06:59;;;;;;;8.70;3.20;;;18.40;99.90;;;;;;4992642;28;20049;-80
2023/07/12 02:09:35;;;;;;;8.43;3.08;;;18.40;99.90;;;;;;5002013;28;20623;-80
2023/07/12 02:12:00;;;;;;;8.88;3.20;;;18.40;99.90;;;;;;4997972;28;20045;-80
2023/07/12 02:14:26;;;;;;;8.30;3.35;;;18.40;99.90;;;;;;5000619;28;20106;-80
2023/07/12 02:16:52;;;;;;;9.70;3.20;;;18.30;99.90;;;;;;5020628;28;20494;-80
2023/07/12 02:19:20;;;;;;;11.35;3.70;;;18.30;99.90;;;;;;5062964;28;20049;-80
2023/07/12 02:21:46;;;;;;;9.75;3.40;;;18.20;99.90;;;;;;5024238;27;20136;-80
2023/07/12 02:24:12;;;;;;;8.23;3.22;;;18.30;99.90;;;;;;5007215;28;20146;-80
2023/07/12 02:26:39;;;;;;;9.30;3.45;;;18.30;99.90;;;;;;5020168;28;20052;-80
2023/07/12 02:29:05;;;;;;;10.63;3.50;;;18.30;99.90;;;;;;5030551;27;20181;-81
2023/07/12 02:31:32;;;;;;;9.60;3.80;;;18.20;99.90;;;;;;4993080;28;20116;-81
2023/07/12 02:33:57;;;;;;;10.13;4.10;;;18.20;99.90;;;;;;5026172;28;20048;-80
2023/07/12 02:36:23;;;;;;;11.80;3.97;;;18.20;99.90;;;;;;5021198;28;20048;-80
2023/07/12 02:38:49;;;;;;;10.02;3.65;;;18.20;99.90;;;;;;5005237;28;20116;-80
2023/07/12 02:41:18;;;;;;;9.68;3.80;;;18.20;99.90;;;;;;5003357;28;20072;-80
2023/07/12 02:43:46;;;;;;;9.15;4.00;;;18.10;99.90;;;;;;5004231;28;20146;-80
2023/07/12 02:46:12;;;;;;;15.52;4.35;;;18.10;99.90;;;;;;5011335;28;20033;-80
2023/07/12 02:48:38;;;;;;;10.93;4.03;;;18.10;99.90;;;;;;5006430;27;20051;-81
2023/07/12 02:51:04;;;;;;;10.07;4.35;;;18.10;99.90;;;;;;5019055;27;20041;-81
2023/07/12 02:53:30;;;;;;;13.95;5.00;;;18.10;99.90;;;;;;5023329;27;20064;-80
2023/07/12 02:55:55;;;;;;;11.48;4.45;;;18.00;99.90;;;;;;5025989;27;20061;-81
2023/07/12 02:58:21;;;;;;;9.85;4.30;;;18.00;99.90;;;;;;5025804;28;20113;-81
2023/07/12 03:00:47;;;;;;;11.98;4.43;;;18.00;99.90;;;;;;5024813;27;20041;-80
2023/07/12 03:03:13;;;;;;;12.40;4.50;;;18.00;99.90;;;;;;5006863;28;20402;-80
2023/07/12 03:05:40;;;;;;;12.02;4.72;;;17.90;99.90;;;;;;5034783;28;20049;-80
2023/07/12 03:08:07;;;;;;;11.98;4.53;;;18.00;99.90;;;;;;5007069;28;20056;-80
2023/07/12 03:10:36;;;;;;;10.85;4.53;;;18.00;99.90;;;;;;5013031;27;20049;-81
2023/07/12 03:13:02;;;;;;;13.18;4.53;;;17.90;99.90;;;;;;5002211;28;20033;-81
2023/07/12 03:15:28;;;;;;;12.32;4.35;;;17.90;99.90;;;;;;4987496;28;20060;-81
2023/07/12 03:17:53;;;;;;;11.88;4.82;;;17.90;99.90;;;;;;5007555;28;20041;-81
2023/07/12 03:20:19;;;;;;;11.27;4.15;;;17.90;99.90;;;;;;4992458;28;20119;-82
2023/07/12 03:22:45;;;;;;;14.23;4.43;;;17.80;99.90;;;;;;4991906;28;20042;-82
2023/07/12 03:25:10;;;;;;;13.00;4.53;;;17.80;99.90;;;;;;5019818;28;20145;-81
2023/07/12 03:27:36;;;;;;;12.90;4.45;;;17.80;99.90;;;;;;5010601;28;20047;-82
2023/07/12 03:30:02;;;;;;;14.68;4.32;;;17.80;99.90;;;;;;5006138;27;20041;-81
2023/07/12 03:32:28;;;;;;;12.95;4.20;;;17.80;99.90;;;;;;5008716;28;20045;-82
2023/07/12 03:34:54;;;;;;;13.43;4.38;;;17.70;99.90;;;;;;4995005;28;20607;-81
2023/07/12 03:37:19;;;;;;;12.60;4.70;;;17.70;99.90;;;;;;4993112;28;20053;-82
2023/07/12 03:39:45;;;;;;;13.82;4.72;;;17.70;99.90;;;;;;5013322;28;20033;-82
2023/07/12 03:42:11;;;;;;;14.73;4.78;;;17.70;99.90;;;;;;5012971;27;20038;-82
2023/07/12 03:44:37;;;;;;;14.25;4.70;;;17.70;99.90;;;;;;5012095;28;20045;-81
2023/07/12 03:47:03;;;;;;;20.45;5.05;;;17.70;99.90;;;;;;5008749;27;20042;-81
2023/07/12 03:49:29;;;;;;;11.95;4.35;;;17.70;99.90;;;;;;5004214;27;20064;-81
2023/07/12 03:51:54;;;;;;;15.95;4.78;;;17.70;99.90;;;;;;4998435;28;20509;-81
2023/07/12 03:54:21;;;;;;;14.80;4.70;;;17.60;99.90;;;;;;5011527;28;20127;-81
2023/07/12 03:56:47;;;;;;;11.55;3.95;;;17.70;99.90;;;;;;5027138;27;20044;-81
2023/07/12 03:59:13;;;;;;;15.50;5.07;;;17.70;99.90;;;;;;5008605;28;20037;-81
2023/07/12 04:01:39;;;;;;;13.57;4.63;;;17.70;99.90;;;;;;5027377;28;20115;-80
2023/07/12 04:04:05;;;;;;;14.68;4.65;;;17.70;99.90;;;;;;5025784;28;20120;-80
2023/07/12 04:06:31;;;;;;;15.13;4.45;;;17.70;99.90;;;;;;5028409;27;20494;-81
2023/07/12 04:08:57;;;;;;;13.65;4.85;;;17.60;99.90;;;;;;5013090;28;20041;-80
2023/07/12 04:11:29;;;;;;;12.73;4.25;;;17.60;99.90;;;;;;5007371;28;20089;-80
2023/07/12 04:13:55;;;;;;;14.27;4.60;;;17.60;99.90;;;;;;5027558;27;20566;-80
2023/07/12 04:16:25;;;;;;;14.55;4.70;;;17.60;99.90;;;;;;5023173;28;20044;-80
2023/07/12 04:18:52;;;;;;;13.38;4.53;;;17.60;99.90;;;;;;5027555;28;20445;-80
2023/07/12 04:21:18;;;;;;;12.35;4.55;;;17.60;99.90;;;;;;5026221;28;20037;-80
2023/07/12 04:23:47;;;;;;;15.65;4.70;;;18.60;99.90;;;;;;5013098;28;20168;-80
2023/07/12 04:26:13;;;;;;;12.43;4.28;;;17.60;99.90;;;;;;5013366;27;20097;-80
2023/07/12 04:28:39;;;;;;;15.65;4.60;;;17.60;99.90;;;;;;5012770;27;20486;-80
2023/07/12 04:31:09;;;;;;;16.48;4.55;;;17.70;99.90;;;;;;5012347;27;20305;-80
2023/07/12 04:33:35;;;;;;;14.07;4.47;;;17.60;99.90;;;;;;5026959;27;20041;-80
2023/07/12 04:36:05;;;;;;;13.77;4.57;;;17.60;99.90;;;;;;4997174;28;20045;-80
2023/07/12 04:38:32;;;;;;;13.40;4.47;;;17.60;99.90;;;;;;5021539;28;20037;-80
2023/07/12 04:40:58;;;;;;;13.98;4.93;;;17.70;99.90;;;;;;4992504;28;20301;-80
2023/07/12 04:43:24;;;;;;;12.02;4.03;;;17.60;99.90;;;;;;5029674;27;20270;-80
2023/07/12 04:45:50;;;;;;;14.70;4.47;;;17.60;99.90;;;;;;5003166;28;20065;-80
2023/07/12 04:48:16;;;;;;;14.90;4.70;;;17.70;99.90;;;;;;5023293;27;20120;-80
2023/07/12 04:50:43;;;;;;;14.85;4.55;;;17.60;99.90;;;;;;5007985;27;20045;-80
2023/07/12 04:53:09;;;;;;;14.40;4.68;;;17.60;99.90;;;;;;5015923;27;20047;-80
2023/07/12 04:55:35;;;;;;;19.25;5.10;;;17.60;99.90;;;;;;5022328;28;20041;-80
2023/07/12 04:58:00;;;;;;;14.93;5.05;;;17.60;99.90;;;;;;4993857;27;20490;-80
2023/07/12 05:00:26;;;;;;;14.70;4.93;;;17.60;99.90;;;;;;5020952;27;20040;-80
2023/07/12 05:02:53;;;;;;;12.80;4.40;;;17.60;99.90;;;;;;5026186;28;20029;-80
2023/07/12 05:05:20;;;;;;;13.98;4.90;;;17.60;99.90;;;;;;5018843;28;20053;-80
2023/07/12 05:07:48;;;;;;;15.73;5.22;;;17.60;99.90;;;;;;5022291;28;20053;-80
2023/07/12 05:10:14;;;;;;;14.13;5.30;;;17.60;99.90;;;;;;5017234;28;20037;-80
2023/07/12 05:12:40;;;;;;;13.57;5.20;;;17.60;99.90;;;;;;5005813;28;20041;-80
2023/07/12 05:15:07;;;;;;;19.58;5.28;;;17.70;99.90;;;;;;5032645;27;20782;-80
2023/07/12 05:17:34;;;;;;;17.33;5.15;;;17.70;99.90;;;;;;5028854;28;20040;-80
2023/07/12 05:20:00;;;;;;;14.13;5.20;;;17.70;99.90;;;;;;5011125;28;20029;-80
2023/07/12 05:22:26;;;;;;;11.43;4.22;;;17.80;99.90;;;;;;5006324;28;20052;-80
2023/07/12 05:24:52;;;;;;;16.83;5.60;;;17.80;99.90;;;;;;5020631;27;20150;-80
2023/07/12 05:27:18;;;;;;;16.25;4.93;;;17.80;99.90;;;;;;5003762;28;20050;-80
2023/07/12 05:29:44;;;;;;;15.00;5.15;;;17.80;99.90;;;;;;5068524;27;20041;-80
2023/07/12 05:32:10;;;;;;;14.77;4.40;;;17.80;99.90;;;;;;5001285;28;20112;-81
2023/07/12 05:34:36;;;;;;;17.10;5.13;;;17.80;99.90;;;;;;5004142;28;20406;-80
2023/07/12 05:37:03;;;;;;;14.40;4.72;;;17.80;99.90;;;;;;5006950;28;20044;-80
2023/07/12 05:39:29;;;;;;;14.05;5.00;;;17.80;99.90;;;;;;5018251;28;20929;-80
2023/07/12 05:41:54;;;;;;;14.95;4.47;;;17.80;99.90;;;;;;5006568;28;20063;-80
2023/07/12 05:44:20;;;;;;;14.68;4.40;;;17.90;99.90;;;;;;4992285;27;20045;-80
2023/07/12 05:46:46;;;;;;;13.85;4.93;;;17.90;99.90;;;;;;5025017;27;20037;-80
2023/07/12 05:49:12;;;;;;;14.70;4.63;;;17.90;99.90;;;;;;5024039;27;20060;-80
2023/07/12 05:51:37;;;;;;;13.90;4.70;;;17.90;99.90;;;;;;4991669;28;20095;-80
2023/07/12 05:54:03;;;;;;;18.67;5.03;;;18.00;99.90;;;;;;4992040;28;20507;-80
2023/07/12 05:56:29;;;;;;;13.60;4.78;;;18.10;99.90;;;;;;5008008;28;20059;-80
2023/07/12 05:58:55;;;;;;;12.82;4.18;;;18.10;99.90;;;;;;4999786;28;20048;-80
2023/07/12 06:01:21;;;;;;;18.10;5.97;;;18.10;99.90;;;;;;5009700;28;20044;-80
2023/07/12 06:03:47;;;;;;;15.88;5.03;;;18.10;99.90;;;;;;5010143;27;20048;-79
2023/07/12 06:06:13;;;;;;;11.63;4.20;;;18.10;99.90;;;;;;5026540;28;20438;-79
2023/07/12 06:08:39;;;;;;;13.82;4.60;;;18.10;99.90;;;;;;5008454;28;20052;-80
2023/07/12 06:11:05;;;;;;;12.52;4.65;;;18.00;99.90;;;;;;5020232;28;20132;-79
2023/07/12 06:13:31;;;;;;;13.88;5.18;;;18.00;99.90;;;;;;5022867;28;20052;-80
2023/07/12 06:15:57;;;;;;;14.55;4.80;;;18.00;99.90;;;;;;4997089;28;20041;-80
2023/07/12 06:18:23;;;;;;;13.65;4.85;;;19.00;99.90;;;;;;5044371;28;20459;-80
2023/07/12 06:20:55;;;;;;;13.38;5.00;;;18.20;99.90;;;;;;5006958;28;20068;-80
2023/07/12 06:23:21;;;;;;;15.55;5.43;;;18.30;99.90;;;;;;4999242;28;20102;-81
2023/07/12 06:25:47;;;;;;;15.60;5.38;;;18.30;99.90;;;;;;5024367;28;20041;-80
2023/07/12 06:28:13;;;;;;;16.25;5.75;;;18.40;99.90;;;;;;5073931;28;20052;-80
2023/07/12 06:30:39;;;;;;;14.55;5.68;;;18.50;99.90;;;;;;5005976;28;20458;-80
2023/07/12 06:33:04;;;;;;;13.90;5.30;;;18.70;99.90;;;;;;4990295;28;20048;-80
2023/07/12 06:35:30;;;;;;;15.02;5.50;;;18.70;99.90;;;;;;5004831;27;20068;-80
2023/07/12 06:37:57;;;;;;;16.08;5.55;;;18.70;99.90;;;;;;4990864;27;20549;-81
2023/07/12 06:40:23;;;;;;;14.95;5.75;;;18.80;99.90;;;;;;5033836;28;20037;-81
2023/07/12 06:42:49;;;;;;;16.38;5.82;;;19.00;99.90;;;;;;5023796;27;20040;-80
2023/07/12 06:45:15;;;;;;;15.82;6.03;;;19.10;99.90;;;;;;5037586;27;20379;-81
2023/07/12 06:47:40;;;;;;;13.52;5.47;;;19.00;99.90;;;;;;5022144;28;20482;-81
2023/07/12 06:50:07;;;;;;;17.88;6.28;;;;;;;;;;5001843;28;20755;-81
2023/07/12 06:52:32;;;;;;;16.02;5.70;;;19.10;99.90;;;;;;5009343;28;20177;-81
2023/07/12 06:54:58;;;;;;;16.42;5.85;;;19.10;99.90;;;;;;5033730;27;20072;-81
2023/07/12 06:57:24;;;;;;;12.85;5.50;;;19.10;99.90;;;;;;5008867;27;20285;-81
2023/07/12 06:59:49;;;;;;;15.57;5.35;;;19.10;99.90;;;;;;4999146;27;20581;-80
2023/07/12 07:02:15;;;;;;;14.52;5.28;;;19.20;99.90;;;;;;5013472;28;20185;-80
2023/07/12 07:04:41;;;;;;;15.40;5.40;;;19.30;99.90;;;;;;5007400;28;20044;-81
2023/07/12 07:07:07;;;;;;;16.45;5.53;;;19.30;99.90;;;;;;5035213;27;20044;-81
2023/07/12 07:09:39;;;;;;;13.90;5.13;;;19.40;99.90;;;;;;5006891;28;20037;-81
2023/07/12 07:12:06;;;;;;;16.15;5.10;;;19.50;99.90;;;;;;5022680;28;20177;-81
2023/07/12 07:14:32;;;;;;;15.07;4.57;;;19.70;99.90;;;;;;4988378;28;20045;-81
2023/07/12 07:16:58;;;;;;;15.48;4.80;;;19.70;99.90;;;;;;5007617;28;20500;-81
2023/07/12 07:19:24;;;;;;;15.50;4.72;;;19.60;99.90;;;;;;5004893;28;20075;-81
2023/07/12 07:21:50;;;;;;;15.20;4.90;;;19.70;99.90;;;;;;5022790;27;20692;-81
2023/07/12 07:24:17;;;;;;;16.80;4.43;;;19.80;99.90;;;;;;5021080;28;20128;-81
2023/07/12 07:26:43;;;;;;;11.43;3.83;;;19.90;99.90;;;;;;5022309;28;20475;-81
2023/07/12 07:29:10;;;;;;;12.68;3.85;;;19.90;99.90;;;;;;5019432;28;20057;-81
2023/07/12 07:31:36;;;;;;;14.55;4.05;;;19.90;99.90;;;;;;5010327;27;20037;-81
2023/07/12 07:34:03;;;;;;;15.32;3.85;;;19.80;99.90;;;;;;4995819;27;20041;-81
2023/07/12 07:36:29;;;;;;;12.40;3.88;;;19.70;99.90;;;;;;5022514;28;20041;-81
2023/07/12 07:38:55;;;;;;;13.63;3.63;;;19.70;99.90;;;;;;4993218;28;20332;-82
2023/07/12 07:41:21;;;;;;;12.48;3.75;;;19.70;99.90;;;;;;4991363;28;20037;-81
2023/07/12 07:43:46;;;;;;;15.93;4.28;;;19.70;99.90;;;;;;5006854;28;20037;-81
2023/07/12 07:46:14;;;;;;;14.73;4.45;;;19.90;99.90;;;;;;5009050;28;20033;-82
2023/07/12 07:48:40;;;;;;;15.13;4.10;;;20.00;99.90;;;;;;5018937;28;20044;-81
2023/07/12 07:51:10;;;;;;;12.95;4.00;;;20.10;99.90;;;;;;5011846;27;20048;-82
2023/07/12 07:53:36;;;;;;;12.70;3.72;;;20.10;99.90;;;;;;4995669;28;20049;-82
2023/07/12 07:56:02;;;;;;;14.38;3.70;;;20.10;99.90;;;;;;5020282;28;20090;-82
2023/07/12 07:58:27;;;;;;;13.55;3.72;;;20.10;99.90;;;;;;5024389;28;20041;-82
2023/07/12 08:00:53;;;;;;;12.18;3.97;;;20.10;99.90;;;;;;5021294;28;20041;-82
2023/07/12 08:03:19;;;;;;;12.65;4.05;;;20.20;99.90;;;;;;5025903;28;20475;-82
2023/07/12 08:05:45;;;;;;;13.52;3.72;;;20.00;99.90;;;;;;5018443;28;20056;-82
2023/07/12 08:08:13;;;;;;;14.07;3.78;;;19.90;99.90;;;;;;5065096;28;20033;-82
2023/07/12 08:10:38;;;;;;;12.55;4.32;;;19.80;99.90;;;;;;5019769;28;20045;-82
2023/07/12 08:13:05;;;;;;;14.55;4.63;;;19.80;99.90;;;;;;5006662;28;20034;-82
2023/07/12 08:15:30;;;;;;;14.98;4.75;;;19.70;99.90;;;;;;5014797;28;20045;-83
2023/07/12 08:17:56;;;;;;;14.45;4.70;;;19.60;99.90;;;;;;5014068;28;20063;-82
2023/07/12 08:20:24;;;;;;;14.52;4.68;;;19.60;99.90;;;;;;5000343;28;20033;-82
2023/07/12 08:22:49;;;;;;;15.88;4.75;;;19.60;99.90;;;;;;5003735;28;20104;-83
2023/07/12 08:25:15;;;;;;;14.77;4.57;;;20.40;99.90;;;;;;5008075;28;20072;-84
2023/07/12 08:27:41;;;;;;;13.30;4.07;;;19.90;99.90;;;;;;5002735;28;20056;-83
2023/07/12 08:30:08;;;;;;;13.50;4.20;;;20.20;99.90;;;;;;5006827;28;20043;-83
2023/07/12 08:32:34;;;;;;;15.27;3.67;;;20.40;99.90;;;;;;5005786;28;20489;-83
2023/07/12 08:35:01;;;;;;;15.77;3.95;;;20.60;99.90;;;;;;5005880;28;20609;-82
2023/07/12 08:37:27;;;;;;;14.85;4.25;;;20.50;99.90;;;;;;5007631;28;20033;-83
2023/07/12 08:39:54;;;;;;;13.48;3.78;;;20.40;99.90;;;;;;5001838;28;20079;-83
2023/07/12 08:42:33;;;;;;;11.27;3.47;;;20.00;99.90;;;;;;5005696;28;20086;-82
2023/07/12 08:45:00;;;;;;;10.52;2.80;;;19.60;99.90;;;;;;5026904;28;20418;-83
2023/07/12 08:47:30;;;;;;;8.88;2.60;;;19.30;99.90;;;;;;5002751;28;20394;-83
2023/07/12 08:49:57;;;;;;;12.52;3.10;;;19.10;99.90;;;;;;5013414;28;20499;-84
2023/07/12 08:52:30;;;;;;;12.80;3.22;;;19.00;99.90;;;;;;5007004;28;20049;-84
2023/07/12 08:54:59;;;;;;;10.45;2.80;;;19.10;99.90;;;;;;5011163;28;20047;-84
2023/07/12 08:57:28;;;;;;;11.10;3.15;;;19.10;99.90;;;;;;5023350;28;20069;-84
2023/07/12 09:00:14;;;;;;;12.05;3.53;;;19.00;99.90;;;;;;5011551;27;20036;-83
2023/07/12 09:02:39;;;;;;;12.50;3.25;;;19.00;99.90;;;;;;5009920;28;21443;-84
2023/07/12 09:05:16;;;;;;;11.50;3.05;;;19.00;99.90;;;;;;5013191;28;20409;-83
2023/07/12 09:07:59;;;;;;;12.88;3.10;;;19.00;99.90;;;;;;5021590;28;20043;-82
2023/07/12 09:10:29;;;;;;;14.07;3.67;;;19.80;99.90;;;;;;5027934;28;20506;-83
2023/07/12 09:12:58;;;;;;;12.38;3.50;;;19.30;99.90;;;;;;5008312;28;21370;-82
2023/07/12 09:15:33;;;;;;;12.50;3.28;;;19.30;99.90;;;;;;5032486;27;20522;-82
2023/07/12 09:18:00;;;;;;;10.38;3.38;;;19.40;99.90;;;;;;5091261;27;21685;-82
2023/07/12 09:20:26;;;;;;;12.00;3.40;;;19.50;99.90;;;;;;5015424;28;20045;-82
2023/07/12 09:22:54;;;;;;;11.57;3.20;;;19.80;99.90;;;;;;5020815;28;20112;-82
2023/07/12 09:25:27;;;;;;;13.50;3.22;;;20.10;99.90;;;;;;5009938;28;20041;-81
2023/07/12 09:27:53;;;;;;;11.35;3.83;;;20.30;99.90;;;;;;5021809;28;20051;-82
2023/07/12 09:30:27;;;;;;;16.02;4.00;;;20.60;99.90;;;;;;5004036;28;20132;-82
2023/07/12 09:32:57;;;;;;;11.85;4.15;;;20.80;99.90;;;;;;5032521;27;20550;-82
2023/07/12 09:35:47;;;;;;;12.60;3.33;;;20.80;99.90;;;;;;5023718;28;20504;-82
2023/07/12 09:38:23;;;;;;;12.48;3.38;;;20.60;99.90;;;;;;5004104;28;20037;-81
2023/07/12 09:40:51;;;;;;;12.82;3.33;;;20.50;99.90;;;;;;5001803;28;20124;-81
2023/07/12 09:43:17;;;;;;;11.23;3.45;;;20.30;99.90;;;;;;5025559;28;21745;-82
2023/07/12 09:46:04;;;;;;;12.18;3.10;;;20.20;99.90;;;;;;5005729;28;20086;-83
2023/07/12 09:48:55;;;;;;;13.50;3.65;;;20.10;99.90;;;;;;5012944;27;20041;-82
2023/07/12 09:51:54;;;;;;;11.75;3.15;;;19.90;99.90;;;;;;5002788;28;20127;-81
2023/07/12 09:54:35;;;;;;;11.45;3.47;;;19.80;99.90;;;;;;5025773;27;20071;-82
2023/07/12 09:57:18;;;;;;;11.02;3.45;;;19.60;99.90;;;;;;5020030;28;20342;-82
2023/07/12 10:00:16;;;;;;;11.75;3.58;;;19.60;99.90;;;;;;5021431;27;20037;-81
2023/07/12 10:02:57;;;;;;;12.40;3.63;;;19.60;99.90;;;;;;5007401;28;20123;-81
2023/07/12 10:05:23;;;;;;;12.20;3.92;;;19.70;99.90;;;;;;5007523;28;20045;-81
2023/07/12 10:07:58;;;;;;;13.13;3.70;;;19.90;99.90;;;;;;5009626;27;20040;-81
2023/07/12 10:10:45;;;;;;;13.48;3.67;;;20.20;99.90;;;;;;5033042;27;20409;-81
2023/07/12 10:13:34;;;;;;;15.02;4.05;;;20.50;99.90;;;;;;5029993;27;20035;-81
2023/07/12 10:16:02;;;;;;;12.45;3.42;;;20.90;99.90;;;;;;5004713;28;20063;-82
2023/07/12 10:18:33;;;;;;;13.18;3.30;;;21.20;99.90;;;;;;4999266;28;20029;-81
2023/07/12 10:20:59;;;;;;;12.48;3.55;;;21.20;99.90;;;;;;5037321;28;20055;-81
2023/07/12 10:23:30;;;;;;;11.90;2.90;;;21.40;99.90;;;;;;5020891;28;20059;-81
2023/07/12 10:26:03;;;;;;;10.85;3.30;;;21.40;99.90;;;;;;5033116;27;20490;-82
2023/07/12 10:28:43;;;;;;;13.00;3.35;;;21.50;99.90;;;;;;5024450;28;20522;-82
2023/07/12 10:31:22;;;;;;;10.10;2.90;;;21.60;99.90;;;;;;5023299;28;20533;-82
2023/07/12 10:33:50;;;;;;;11.82;2.95;;;21.60;99.90;;;;;;5007652;27;20052;-83
2023/07/12 10:36:22;;;;;;;9.38;2.35;;;21.50;99.90;;;;;;5025312;28;20037;-83
2023/07/12 10:38:48;;;;;;;7.57;2.17;;;21.80;99.90;;;;;;5005688;28;20037;-82
2023/07/12 10:41:30;;;;;;;7.85;2.45;;;21.60;99.90;;;;;;5012681;28;20096;-83
2023/07/12 10:44:20;;;;;;;8.55;2.35;;;21.90;99.90;;;;;;5026105;28;20037;-83
2023/07/12 10:46:52;;;;;;;10.18;2.45;;;21.80;99.90;;;;;;5026858;28;20199;-83
2023/07/12 10:49:39;;;;;;;8.15;2.38;;;21.70;99.90;;;;;;5020196;27;20065;-83
2023/07/12 10:52:11;;;;;;;8.00;2.30;;;21.20;99.90;;;;;;5025900;27;20107;-83
2023/07/12 10:54:36;;;;;;;7.37;2.10;;;21.60;99.90;;;;;;5021845;28;20044;-83
2023/07/12 10:57:21;;;;;;;8.63;2.35;;;21.40;99.90;;;;;;5008372;28;20045;-83
2023/07/12 10:59:47;;;;;;;8.65;2.20;;;21.20;99.90;;;;;;5038311;27;20134;-83
2023/07/12 11:02:25;;;;;;;8.35;2.08;;;21.40;99.90;;;;;;5010738;28;20089;-83
2023/07/12 11:04:51;;;;;;;9.30;2.33;;;21.40;99.90;;;;;;5005285;28;20063;-83
2023/07/12 11:07:17;;;;;;;7.55;2.42;;;21.60;99.90;;;;;;5010049;28;20055;-83
2023/07/12 11:09:43;;;;;;;9.38;2.75;;;21.90;99.90;;;;;;5021744;28;20045;-83
2023/07/12 11:12:12;;;;;;;9.18;2.10;;;22.00;99.90;;;;;;5023755;28;20037;-83
2023/07/12 11:14:38;;;;;;;8.05;2.17;;;22.10;99.90;;;;;;5023522;28;20047;-83
2023/07/12 11:17:16;;;;;;;9.77;2.53;;;22.20;99.90;;;;;;5025621;28;20036;-83
2023/07/12 11:19:44;;;;;;;8.20;2.25;;;22.30;99.90;;;;;;4996382;28;20149;-83
2023/07/12 11:22:14;;;;;;;8.10;2.30;;;22.30;99.90;;;;;;5019154;28;20570;-83
2023/07/12 11:25:21;;;;;;;8.15;2.10;;;22.40;99.90;;;;;;5021770;28;20033;-82
2023/07/12 11:27:54;;;;;;;8.18;1.90;;;22.50;99.90;;;;;;5021704;27;20045;-82
2023/07/12 11:30:39;;;;;;;6.28;1.80;;;22.60;99.90;;;;;;5025235;28;20033;-83
2023/07/12 11:33:17;;;;;;;7.18;2.00;;;22.60;99.90;;;;;;5018607;28;20041;-83
2023/07/12 11:35:51;;;;;;;7.47;2.05;;;22.70;99.90;;;;;;5020993;28;20048;-83
2023/07/12 11:38:25;;;;;;;6.40;1.80;;;22.80;99.90;;;;;;5020380;28;20490;-82
2023/07/12 11:40:56;;;;;;;5.50;1.63;;;22.80;99.90;;;;;;5023084;28;20094;-82
2023/07/12 11:43:24;;;;;;;4.55;1.60;;;22.10;99.90;;;;;;5022321;28;20041;-83
2023/07/12 11:45:54;;;;;;;7.65;1.70;;;22.90;99.90;;;;;;5022430;28;20072;-82
2023/07/12 11:48:20;;;;;;;5.43;1.80;;;22.90;99.90;;;;;;5014473;28;20049;-83
2023/07/12 11:50:51;;;;;;;6.15;1.80;;;22.90;99.90;;;;;;5012559;28;20078;-83
2023/07/12 11:53:18;;;;;;;7.72;1.58;;;23.00;99.90;;;;;;5033832;28;20179;-83
2023/07/12 11:55:47;;;;;;;5.90;1.60;;;22.80;99.90;;;;;;5020469;28;20045;-83
2023/07/12 11:58:21;;;;;;;3.50;1.40;;;22.80;99.90;;;;;;4999575;28;20044;-83
2023/07/12 12:00:49;;;;;;;6.57;1.90;;;22.90;99.90;;;;;;5018902;27;20037;-83
2023/07/12 12:03:16;;;;;;;5.05;1.50;;;23.00;99.90;;;;;;5034304;28;20052;-84
2023/07/12 12:05:44;;;;;;;6.43;1.65;;;22.90;99.90;;;;;;4996910;28;20048;-83
2023/07/12 12:08:31;;;;;;;5.40;1.38;;;22.90;99.90;;;;;;5008580;28;20053;-84
2023/07/12 12:10:57;;;;;;;6.68;1.80;;;22.90;99.90;;;;;;5000429;28;20040;-83
2023/07/12 12:13:30;;;;;;;4.57;1.58;;;23.00;99.90;;;;;;5027894;28;20047;-82
2023/07/12 12:16:06;;;;;;;5.47;1.33;;;23.10;99.90;;;;;;5030347;27;20047;-82
2023/07/12 12:18:35;;;;;;;5.60;1.50;;;23.10;99.90;;;;;;5014352;28;20397;-82
2023/07/12 12:21:14;;;;;;;5.75;1.63;;;22.90;99.90;;;;;;5012512;28;20045;-82
2023/07/12 12:23:41;;;;;;;5.40;1.50;;;22.70;99.90;;;;;;5072571;27;20522;-83
2023/07/12 12:26:34;;;;;;;4.97;1.40;;;22.70;99.90;;;;;;5025544;27;20219;-83
2023/07/12 12:29:24;;;;;;;5.50;1.50;;;22.70;99.90;;;;;;5019374;28;20085;-83
2023/07/12 12:31:54;;;;;;;6.95;1.50;;;22.70;99.90;;;;;;5028491;27;20513;-83
2023/07/12 12:34:21;;;;;;;6.80;1.52;;;22.90;99.90;;;;;;5027102;28;20523;-83
2023/07/12 12:37:05;;;;;;;5.78;1.65;;;23.00;99.90;;;;;;5031877;28;20089;-83
2023/07/12 12:39:32;;;;;;;6.60;1.70;;;21.80;99.90;;;;;;5026750;28;20033;-83
2023/07/12 12:42:03;;;;;;;6.00;1.63;;;23.00;99.90;;;;;;5026339;28;20040;-83
2023/07/12 12:44:36;;;;;;;6.55;1.50;;;23.20;99.90;;;;;;5034636;27;20536;-83
2023/07/12 12:47:16;;;;;;;5.57;1.30;;;23.30;99.90;;;;;;5027018;28;20060;-83
2023/07/12 12:49:42;;;;;;;4.80;1.40;;;23.40;99.90;;;;;;5033934;28;20064;-83